This is the latest recevied weather packets stored in our database for station/object KC9EGS. If no packets are shown the sender has not sent any weather packets the latest 10 day(s).
| Time | Temp. | Humidity | Pressure | Rain* | Wind** | Luminosity | Snow |
|---|---|---|---|---|---|---|---|
| 1777727716 | 1.67° C | 70% | 1014.8 hPa | 0 mm | - | - | - |
| 1777727411 | 1.11° C | 71% | 1014.8 hPa | 0 mm | - | - | - |
| 1777727115 | 1.11° C | 72% | 1014.8 hPa | 0 mm | - | - | - |
| 1777726511 | 0° C | 77% | 1014.9 hPa | 0 mm | - | - | - |
| 1777725915 | -1.11° C | 84% | 1014.9 hPa | 0 mm | - | - | - |
| 1777725610 | -1.11° C | 87% | 1015.1 hPa | 0 mm | - | - | - |
| 1777725318 | -1.67° C | 90% | 1015.1 hPa | 0 mm | - | - | - |
| 1777724709 | -2.22° C | 92% | 1015.2 hPa | 0 mm | - | - | - |
| 1777724116 | -2.78° C | 92% | 1015.2 hPa | 0 mm | - | - | - |
| 1777723810 | -3.33° C | 92% | 1015.1 hPa | 0 mm | - | - | - |
| 1777722912 | -3.89° C | 91% | 1015.2 hPa | 0 mm | - | - | - |
| 1777722315 | -4.44° C | 90% | 1015.2 hPa | 0 mm | - | - | - |
| 1777722010 | -4.44° C | 90% | 1015.2 hPa | 0 mm | - | - | - |
| 1777721715 | -4.44° C | 90% | 1015.2 hPa | 0 mm | - | - | - |
| 1777721111 | -4.44° C | 89% | 1015.2 hPa | 0 mm | - | - | - |
| 1777720517 | -4.44° C | 89% | 1015.2 hPa | 0 mm | - | - | - |
| 1777720211 | -4.44° C | 89% | 1015.1 hPa | 0 mm | - | - | - |
| 1777719916 | -5° C | 89% | 1015.1 hPa | 0 mm | - | - | - |
| 1777719309 | -5° C | 88% | 1015.2 hPa | 0 mm | - | - | - |
| 1777718716 | -4.44° C | 88% | 1015.2 hPa | 0 mm | - | - | - |
| 1777718411 | -4.44° C | 88% | 1015.1 hPa | 0 mm | - | - | - |
| 1777718117 | -4.44° C | 88% | 1015.1 hPa | 0 mm | - | - | - |
| 1777717512 | -4.44° C | 88% | 1015.2 hPa | 0 mm | - | - | - |
| 1777716915 | -4.44° C | 88% | 1015.2 hPa | 0 mm | - | - | - |
| 1777716611 | -4.44° C | 88% | 1015.2 hPa | 0 mm | - | - | - |
* Rain latest hour (hover to see other rain measurements)
** Current wind speed in m/s (hover to see current wind gust speed)